sensor_id;sensor_type;location;lat;lon;timestamp;P1;durP1;ratioP1;P2;durP2;ratioP2
5414;SDS011;2730;51.512;7.504;2023-02-14T00:01:34;8.20;;;4.80;;
5414;SDS011;2730;51.512;7.504;2023-02-14T00:04:02;9.90;;;4.90;;
5414;SDS011;2730;51.512;7.504;2023-02-14T00:06:30;9.10;;;5.32;;
5414;SDS011;2730;51.512;7.504;2023-02-14T00:08:59;10.60;;;5.65;;
5414;SDS011;2730;51.512;7.504;2023-02-14T00:11:27;12.23;;;6.40;;
5414;SDS011;2730;51.512;7.504;2023-02-14T00:13:55;9.55;;;5.75;;
5414;SDS011;2730;51.512;7.504;2023-02-14T00:16:39;13.63;;;7.47;;
5414;SDS011;2730;51.512;7.504;2023-02-14T00:19:08;14.77;;;7.10;;
5414;SDS011;2730;51.512;7.504;2023-02-14T00:21:37;9.52;;;6.90;;
5414;SDS011;2730;51.512;7.504;2023-02-14T00:24:06;8.02;;;5.85;;
5414;SDS011;2730;51.512;7.504;2023-02-14T00:26:34;13.93;;;6.70;;
5414;SDS011;2730;51.512;7.504;2023-02-14T00:29:02;16.75;;;6.88;;
5414;SDS011;2730;51.512;7.504;2023-02-14T00:31:29;13.77;;;6.20;;
5414;SDS011;2730;51.512;7.504;2023-02-14T00:33:56;12.32;;;6.07;;
5414;SDS011;2730;51.512;7.504;2023-02-14T00:36:24;10.88;;;6.70;;
5414;SDS011;2730;51.512;7.504;2023-02-14T00:38:51;12.55;;;6.80;;
5414;SDS011;2730;51.512;7.504;2023-02-14T00:41:18;11.77;;;6.15;;
5414;SDS011;2730;51.512;7.504;2023-02-14T00:43:45;9.38;;;5.93;;
5414;SDS011;2730;51.512;7.504;2023-02-14T00:46:12;10.70;;;6.57;;
5414;SDS011;2730;51.512;7.504;2023-02-14T00:48:39;16.15;;;7.63;;
5414;SDS011;2730;51.512;7.504;2023-02-14T00:51:06;14.32;;;7.82;;
5414;SDS011;2730;51.512;7.504;2023-02-14T00:53:34;9.88;;;5.93;;
5414;SDS011;2730;51.512;7.504;2023-02-14T00:56:02;10.55;;;6.38;;
5414;SDS011;2730;51.512;7.504;2023-02-14T00:58:29;13.90;;;6.05;;
5414;SDS011;2730;51.512;7.504;2023-02-14T01:00:57;13.73;;;6.82;;
5414;SDS011;2730;51.512;7.504;2023-02-14T01:03:24;13.32;;;7.32;;
5414;SDS011;2730;51.512;7.504;2023-02-14T01:05:51;12.18;;;6.45;;
5414;SDS011;2730;51.512;7.504;2023-02-14T01:08:18;12.30;;;5.75;;
5414;SDS011;2730;51.512;7.504;2023-02-14T01:10:47;10.00;;;5.05;;
5414;SDS011;2730;51.512;7.504;2023-02-14T01:13:14;12.00;;;5.93;;
5414;SDS011;2730;51.512;7.504;2023-02-14T01:15:41;9.27;;;6.28;;
5414;SDS011;2730;51.512;7.504;2023-02-14T01:18:24;12.05;;;6.00;;
5414;SDS011;2730;51.512;7.504;2023-02-14T01:20:51;11.25;;;5.70;;
5414;SDS011;2730;51.512;7.504;2023-02-14T01:30:16;11.00;;;6.00;;
5414;SDS011;2730;51.512;7.504;2023-02-14T01:32:44;11.77;;;6.53;;
5414;SDS011;2730;51.512;7.504;2023-02-14T01:35:10;10.73;;;5.55;;
5414;SDS011;2730;51.512;7.504;2023-02-14T01:37:37;13.02;;;6.32;;
5414;SDS011;2730;51.512;7.504;2023-02-14T01:40:05;13.43;;;6.20;;
5414;SDS011;2730;51.512;7.504;2023-02-14T01:42:33;12.88;;;5.57;;
5414;SDS011;2730;51.512;7.504;2023-02-14T01:45:01;9.70;;;6.57;;
5414;SDS011;2730;51.512;7.504;2023-02-14T01:47:33;12.63;;;6.30;;
5414;SDS011;2730;51.512;7.504;2023-02-14T01:50:05;18.23;;;7.00;;
5414;SDS011;2730;51.512;7.504;2023-02-14T01:52:35;9.15;;;6.00;;
5414;SDS011;2730;51.512;7.504;2023-02-14T01:55:07;9.95;;;5.00;;
5414;SDS011;2730;51.512;7.504;2023-02-14T01:57:39;8.98;;;5.45;;
5414;SDS011;2730;51.512;7.504;2023-02-14T02:00:11;11.20;;;5.82;;
5414;SDS011;2730;51.512;7.504;2023-02-14T02:02:57;14.95;;;6.30;;
5414;SDS011;2730;51.512;7.504;2023-02-14T02:05:25;12.13;;;6.00;;
5414;SDS011;2730;51.512;7.504;2023-02-14T02:07:54;11.63;;;5.72;;
5414;SDS011;2730;51.512;7.504;2023-02-14T02:10:23;14.07;;;5.70;;
5414;SDS011;2730;51.512;7.504;2023-02-14T02:12:50;8.52;;;5.40;;
5414;SDS011;2730;51.512;7.504;2023-02-14T02:15:19;12.82;;;6.88;;
5414;SDS011;2730;51.512;7.504;2023-02-14T02:17:52;10.68;;;6.05;;
5414;SDS011;2730;51.512;7.504;2023-02-14T02:20:41;12.88;;;5.93;;
5414;SDS011;2730;51.512;7.504;2023-02-14T02:23:50;12.18;;;6.38;;
5414;SDS011;2730;51.512;7.504;2023-02-14T02:29:42;14.02;;;5.70;;
5414;SDS011;2730;51.512;7.504;2023-02-14T02:36:32;7.82;;;5.13;;
5414;SDS011;2730;51.512;7.504;2023-02-14T02:39:24;12.45;;;5.53;;
5414;SDS011;2730;51.512;7.504;2023-02-14T02:42:02;9.95;;;5.50;;
5414;SDS011;2730;51.512;7.504;2023-02-14T02:44:39;12.27;;;5.70;;
5414;SDS011;2730;51.512;7.504;2023-02-14T02:47:10;10.57;;;5.38;;
5414;SDS011;2730;51.512;7.504;2023-02-14T02:49:44;11.15;;;5.38;;
5414;SDS011;2730;51.512;7.504;2023-02-14T02:52:38;8.48;;;5.32;;
5414;SDS011;2730;51.512;7.504;2023-02-14T02:55:28;8.82;;;5.05;;
5414;SDS011;2730;51.512;7.504;2023-02-14T02:58:18;8.18;;;5.07;;
5414;SDS011;2730;51.512;7.504;2023-02-14T03:00:46;8.80;;;5.32;;
5414;SDS011;2730;51.512;7.504;2023-02-14T03:03:15;12.85;;;5.63;;
5414;SDS011;2730;51.512;7.504;2023-02-14T03:06:01;14.18;;;6.30;;
5414;SDS011;2730;51.512;7.504;2023-02-14T03:08:29;6.05;;;4.70;;
5414;SDS011;2730;51.512;7.504;2023-02-14T03:10:56;9.02;;;5.03;;
5414;SDS011;2730;51.512;7.504;2023-02-14T03:13:27;7.88;;;4.70;;
5414;SDS011;2730;51.512;7.504;2023-02-14T03:18:54;9.93;;;4.30;;
5414;SDS011;2730;51.512;7.504;2023-02-14T03:21:51;8.10;;;4.50;;
5414;SDS011;2730;51.512;7.504;2023-02-14T03:24:25;9.60;;;5.68;;
5414;SDS011;2730;51.512;7.504;2023-02-14T03:26:57;8.65;;;4.95;;
5414;SDS011;2730;51.512;7.504;2023-02-14T03:29:30;8.85;;;5.07;;
5414;SDS011;2730;51.512;7.504;2023-02-14T03:32:06;9.60;;;5.32;;
5414;SDS011;2730;51.512;7.504;2023-02-14T03:34:42;14.40;;;6.15;;
5414;SDS011;2730;51.512;7.504;2023-02-14T03:37:18;8.18;;;4.80;;
5414;SDS011;2730;51.512;7.504;2023-02-14T03:39:52;9.00;;;5.57;;
5414;SDS011;2730;51.512;7.504;2023-02-14T03:42:25;6.25;;;4.32;;
5414;SDS011;2730;51.512;7.504;2023-02-14T03:44:55;7.30;;;4.97;;
5414;SDS011;2730;51.512;7.504;2023-02-14T03:47:25;6.78;;;4.35;;
5414;SDS011;2730;51.512;7.504;2023-02-14T03:49:56;6.30;;;4.50;;
5414;SDS011;2730;51.512;7.504;2023-02-14T03:52:26;8.85;;;4.45;;
5414;SDS011;2730;51.512;7.504;2023-02-14T03:54:57;8.45;;;5.00;;
5414;SDS011;2730;51.512;7.504;2023-02-14T03:57:28;7.32;;;4.40;;
5414;SDS011;2730;51.512;7.504;2023-02-14T04:00:00;10.45;;;5.28;;
5414;SDS011;2730;51.512;7.504;2023-02-14T04:02:30;7.63;;;4.50;;
5414;SDS011;2730;51.512;7.504;2023-02-14T04:05:02;11.98;;;4.70;;
5414;SDS011;2730;51.512;7.504;2023-02-14T04:07:42;6.78;;;4.57;;
5414;SDS011;2730;51.512;7.504;2023-02-14T04:10:11;8.55;;;4.82;;
5414;SDS011;2730;51.512;7.504;2023-02-14T04:12:38;8.38;;;4.75;;
5414;SDS011;2730;51.512;7.504;2023-02-14T04:15:05;9.02;;;4.88;;
5414;SDS011;2730;51.512;7.504;2023-02-14T04:17:32;10.85;;;4.63;;
5414;SDS011;2730;51.512;7.504;2023-02-14T04:20:17;9.18;;;4.80;;
5414;SDS011;2730;51.512;7.504;2023-02-14T04:22:44;6.20;;;4.53;;
5414;SDS011;2730;51.512;7.504;2023-02-14T04:25:12;8.85;;;5.53;;
5414;SDS011;2730;51.512;7.504;2023-02-14T04:27:39;7.68;;;5.32;;
5414;SDS011;2730;51.512;7.504;2023-02-14T04:30:06;7.10;;;5.30;;
5414;SDS011;2730;51.512;7.504;2023-02-14T04:32:34;6.38;;;5.00;;
5414;SDS011;2730;51.512;7.504;2023-02-14T04:35:01;9.35;;;4.85;;
5414;SDS011;2730;51.512;7.504;2023-02-14T04:37:28;7.70;;;5.35;;
5414;SDS011;2730;51.512;7.504;2023-02-14T04:39:55;9.35;;;4.95;;
5414;SDS011;2730;51.512;7.504;2023-02-14T04:42:23;11.80;;;5.35;;
5414;SDS011;2730;51.512;7.504;2023-02-14T04:44:49;10.57;;;5.05;;
5414;SDS011;2730;51.512;7.504;2023-02-14T04:47:16;11.88;;;5.53;;
5414;SDS011;2730;51.512;7.504;2023-02-14T04:49:43;12.20;;;5.47;;
5414;SDS011;2730;51.512;7.504;2023-02-14T04:52:10;11.73;;;5.38;;
5414;SDS011;2730;51.512;7.504;2023-02-14T04:54:37;8.65;;;4.80;;
5414;SDS011;2730;51.512;7.504;2023-02-14T04:57:04;9.80;;;5.30;;
5414;SDS011;2730;51.512;7.504;2023-02-14T04:59:32;10.07;;;5.55;;
5414;SDS011;2730;51.512;7.504;2023-02-14T05:01:59;14.43;;;6.78;;
5414;SDS011;2730;51.512;7.504;2023-02-14T05:04:26;19.58;;;6.03;;
5414;SDS011;2730;51.512;7.504;2023-02-14T05:06:53;12.93;;;6.80;;
5414;SDS011;2730;51.512;7.504;2023-02-14T05:09:19;12.75;;;5.90;;
5414;SDS011;2730;51.512;7.504;2023-02-14T05:11:46;12.10;;;6.78;;
5414;SDS011;2730;51.512;7.504;2023-02-14T05:14:13;11.63;;;7.43;;
5414;SDS011;2730;51.512;7.504;2023-02-14T05:16:41;8.95;;;5.35;;
5414;SDS011;2730;51.512;7.504;2023-02-14T05:19:08;9.60;;;5.90;;
5414;SDS011;2730;51.512;7.504;2023-02-14T05:21:35;13.57;;;6.18;;
5414;SDS011;2730;51.512;7.504;2023-02-14T05:24:02;15.52;;;6.15;;
5414;SDS011;2730;51.512;7.504;2023-02-14T05:26:30;14.55;;;7.63;;
5414;SDS011;2730;51.512;7.504;2023-02-14T05:28:56;19.27;;;7.18;;
5414;SDS011;2730;51.512;7.504;2023-02-14T05:31:23;16.00;;;5.90;;
5414;SDS011;2730;51.512;7.504;2023-02-14T05:33:51;15.10;;;6.55;;
5414;SDS011;2730;51.512;7.504;2023-02-14T05:36:18;9.52;;;6.10;;
5414;SDS011;2730;51.512;7.504;2023-02-14T05:38:45;16.63;;;6.03;;
5414;SDS011;2730;51.512;7.504;2023-02-14T05:41:12;11.00;;;6.03;;
5414;SDS011;2730;51.512;7.504;2023-02-14T05:43:39;11.40;;;6.32;;
5414;SDS011;2730;51.512;7.504;2023-02-14T05:46:05;10.27;;;5.65;;
5414;SDS011;2730;51.512;7.504;2023-02-14T05:48:32;14.50;;;6.40;;
5414;SDS011;2730;51.512;7.504;2023-02-14T05:51:03;14.82;;;6.28;;
5414;SDS011;2730;51.512;7.504;2023-02-14T05:53:30;12.43;;;6.45;;
5414;SDS011;2730;51.512;7.504;2023-02-14T05:55:57;10.50;;;6.00;;
5414;SDS011;2730;51.512;7.504;2023-02-14T05:58:24;10.20;;;5.43;;
5414;SDS011;2730;51.512;7.504;2023-02-14T06:00:51;12.40;;;6.70;;
5414;SDS011;2730;51.512;7.504;2023-02-14T06:03:18;9.60;;;5.75;;
5414;SDS011;2730;51.512;7.504;2023-02-14T06:05:44;16.27;;;6.32;;
5414;SDS011;2730;51.512;7.504;2023-02-14T06:08:13;13.18;;;6.45;;
5414;SDS011;2730;51.512;7.504;2023-02-14T06:10:39;9.43;;;5.88;;
5414;SDS011;2730;51.512;7.504;2023-02-14T06:13:06;17.20;;;6.68;;
5414;SDS011;2730;51.512;7.504;2023-02-14T06:15:34;12.77;;;5.90;;
5414;SDS011;2730;51.512;7.504;2023-02-14T06:18:02;17.95;;;7.10;;
5414;SDS011;2730;51.512;7.504;2023-02-14T06:20:30;14.07;;;6.78;;
5414;SDS011;2730;51.512;7.504;2023-02-14T06:22:57;13.60;;;6.47;;
5414;SDS011;2730;51.512;7.504;2023-02-14T06:25:25;9.52;;;5.65;;
5414;SDS011;2730;51.512;7.504;2023-02-14T06:27:54;22.13;;;9.27;;
5414;SDS011;2730;51.512;7.504;2023-02-14T06:30:22;16.38;;;6.05;;
5414;SDS011;2730;51.512;7.504;2023-02-14T06:32:49;14.77;;;7.07;;
5414;SDS011;2730;51.512;7.504;2023-02-14T06:35:16;18.45;;;7.40;;
5414;SDS011;2730;51.512;7.504;2023-02-14T06:37:43;12.45;;;6.40;;
5414;SDS011;2730;51.512;7.504;2023-02-14T06:40:10;12.52;;;6.82;;
5414;SDS011;2730;51.512;7.504;2023-02-14T06:42:39;15.07;;;8.00;;
5414;SDS011;2730;51.512;7.504;2023-02-14T06:45:06;17.67;;;8.13;;
5414;SDS011;2730;51.512;7.504;2023-02-14T06:47:34;20.92;;;7.53;;
5414;SDS011;2730;51.512;7.504;2023-02-14T06:50:01;21.73;;;8.40;;
5414;SDS011;2730;51.512;7.504;2023-02-14T06:52:29;22.92;;;7.47;;
5414;SDS011;2730;51.512;7.504;2023-02-14T06:54:56;15.07;;;7.15;;
5414;SDS011;2730;51.512;7.504;2023-02-14T06:57:23;17.27;;;7.20;;
5414;SDS011;2730;51.512;7.504;2023-02-14T06:59:51;13.68;;;6.95;;
5414;SDS011;2730;51.512;7.504;2023-02-14T07:02:18;13.77;;;7.20;;
5414;SDS011;2730;51.512;7.504;2023-02-14T07:04:45;23.38;;;7.63;;
5414;SDS011;2730;51.512;7.504;2023-02-14T07:07:12;15.23;;;7.60;;
5414;SDS011;2730;51.512;7.504;2023-02-14T07:09:38;10.13;;;5.90;;
5414;SDS011;2730;51.512;7.504;2023-02-14T07:12:06;16.85;;;7.10;;
5414;SDS011;2730;51.512;7.504;2023-02-14T07:14:32;13.88;;;6.40;;
5414;SDS011;2730;51.512;7.504;2023-02-14T07:17:01;15.02;;;7.25;;
5414;SDS011;2730;51.512;7.504;2023-02-14T07:19:28;20.55;;;7.15;;
5414;SDS011;2730;51.512;7.504;2023-02-14T07:21:54;18.92;;;8.00;;
5414;SDS011;2730;51.512;7.504;2023-02-14T07:24:21;20.02;;;7.70;;
5414;SDS011;2730;51.512;7.504;2023-02-14T07:26:48;12.30;;;7.05;;
5414;SDS011;2730;51.512;7.504;2023-02-14T07:29:15;21.38;;;8.25;;
5414;SDS011;2730;51.512;7.504;2023-02-14T07:31:42;20.10;;;7.97;;
5414;SDS011;2730;51.512;7.504;2023-02-14T07:34:10;20.20;;;9.35;;
5414;SDS011;2730;51.512;7.504;2023-02-14T07:36:37;19.55;;;8.55;;
5414;SDS011;2730;51.512;7.504;2023-02-14T07:39:04;16.27;;;8.02;;
5414;SDS011;2730;51.512;7.504;2023-02-14T07:41:31;22.00;;;7.60;;
5414;SDS011;2730;51.512;7.504;2023-02-14T07:43:58;20.05;;;8.40;;
5414;SDS011;2730;51.512;7.504;2023-02-14T07:46:25;13.20;;;6.72;;
5414;SDS011;2730;51.512;7.504;2023-02-14T07:48:51;15.65;;;7.53;;
5414;SDS011;2730;51.512;7.504;2023-02-14T07:51:19;18.35;;;7.60;;
5414;SDS011;2730;51.512;7.504;2023-02-14T07:53:46;24.73;;;9.85;;
5414;SDS011;2730;51.512;7.504;2023-02-14T07:56:13;22.77;;;8.25;;
5414;SDS011;2730;51.512;7.504;2023-02-14T07:58:40;39.28;;;9.27;;
5414;SDS011;2730;51.512;7.504;2023-02-14T08:01:07;26.52;;;9.38;;
5414;SDS011;2730;51.512;7.504;2023-02-14T08:03:34;17.85;;;8.10;;
5414;SDS011;2730;51.512;7.504;2023-02-14T08:06:01;14.65;;;8.02;;
5414;SDS011;2730;51.512;7.504;2023-02-14T08:08:29;22.20;;;8.02;;
5414;SDS011;2730;51.512;7.504;2023-02-14T08:10:57;18.25;;;9.30;;
5414;SDS011;2730;51.512;7.504;2023-02-14T08:13:24;17.33;;;8.30;;
5414;SDS011;2730;51.512;7.504;2023-02-14T08:15:50;24.88;;;10.70;;
5414;SDS011;2730;51.512;7.504;2023-02-14T08:18:34;21.45;;;10.10;;
5414;SDS011;2730;51.512;7.504;2023-02-14T08:21:02;25.35;;;10.00;;
5414;SDS011;2730;51.512;7.504;2023-02-14T08:23:31;17.92;;;10.18;;
5414;SDS011;2730;51.512;7.504;2023-02-14T08:25:58;18.23;;;9.00;;
5414;SDS011;2730;51.512;7.504;2023-02-14T08:28:25;21.42;;;8.38;;
5414;SDS011;2730;51.512;7.504;2023-02-14T08:30:53;22.23;;;9.43;;
5414;SDS011;2730;51.512;7.504;2023-02-14T08:33:20;16.52;;;8.65;;
5414;SDS011;2730;51.512;7.504;2023-02-14T08:35:47;23.38;;;8.80;;
5414;SDS011;2730;51.512;7.504;2023-02-14T08:38:15;19.45;;;9.30;;
5414;SDS011;2730;51.512;7.504;2023-02-14T08:40:44;23.20;;;8.98;;
5414;SDS011;2730;51.512;7.504;2023-02-14T08:43:11;21.92;;;10.13;;
5414;SDS011;2730;51.512;7.504;2023-02-14T08:45:38;17.98;;;9.75;;
5414;SDS011;2730;51.512;7.504;2023-02-14T08:48:06;16.88;;;9.27;;
5414;SDS011;2730;51.512;7.504;2023-02-14T08:50:34;21.33;;;8.43;;
5414;SDS011;2730;51.512;7.504;2023-02-14T08:53:04;15.68;;;8.00;;
5414;SDS011;2730;51.512;7.504;2023-02-14T08:55:32;19.48;;;8.52;;
5414;SDS011;2730;51.512;7.504;2023-02-14T08:58:01;21.67;;;8.48;;
5414;SDS011;2730;51.512;7.504;2023-02-14T09:00:28;17.13;;;8.25;;
5414;SDS011;2730;51.512;7.504;2023-02-14T09:02:55;17.73;;;7.78;;
5414;SDS011;2730;51.512;7.504;2023-02-14T09:05:22;15.18;;;7.82;;
5414;SDS011;2730;51.512;7.504;2023-02-14T09:07:49;17.52;;;8.55;;
5414;SDS011;2730;51.512;7.504;2023-02-14T09:10:16;17.65;;;8.85;;
5414;SDS011;2730;51.512;7.504;2023-02-14T09:12:44;18.85;;;8.65;;
5414;SDS011;2730;51.512;7.504;2023-02-14T09:15:12;20.85;;;8.60;;
5414;SDS011;2730;51.512;7.504;2023-02-14T09:17:39;18.15;;;8.27;;
5414;SDS011;2730;51.512;7.504;2023-02-14T09:20:06;20.50;;;7.43;;
5414;SDS011;2730;51.512;7.504;2023-02-14T09:22:35;11.98;;;7.05;;
5414;SDS011;2730;51.512;7.504;2023-02-14T09:25:02;15.07;;;7.40;;
5414;SDS011;2730;51.512;7.504;2023-02-14T09:27:29;12.80;;;7.07;;
5414;SDS011;2730;51.512;7.504;2023-02-14T09:29:56;13.80;;;7.03;;
5414;SDS011;2730;51.512;7.504;2023-02-14T09:32:25;15.05;;;7.93;;
5414;SDS011;2730;51.512;7.504;2023-02-14T09:34:53;13.25;;;7.18;;
5414;SDS011;2730;51.512;7.504;2023-02-14T09:37:20;10.00;;;6.70;;
5414;SDS011;2730;51.512;7.504;2023-02-14T09:39:47;11.10;;;7.17;;
5414;SDS011;2730;51.512;7.504;2023-02-14T09:42:21;15.90;;;8.30;;
5414;SDS011;2730;51.512;7.504;2023-02-14T09:44:59;12.73;;;7.30;;
5414;SDS011;2730;51.512;7.504;2023-02-14T09:47:32;7.27;;;5.73;;
5414;SDS011;2730;51.512;7.504;2023-02-14T09:50:03;12.47;;;7.07;;
5414;SDS011;2730;51.512;7.504;2023-02-14T09:52:31;11.23;;;5.67;;
5414;SDS011;2730;51.512;7.504;2023-02-14T09:54:59;10.37;;;6.60;;
5414;SDS011;2730;51.512;7.504;2023-02-14T09:57:34;9.60;;;6.40;;
5414;SDS011;2730;51.512;7.504;2023-02-14T10:00:10;8.17;;;6.20;;
5414;SDS011;2730;51.512;7.504;2023-02-14T10:02:51;10.03;;;6.60;;
5414;SDS011;2730;51.512;7.504;2023-02-14T10:05:24;13.17;;;5.63;;
5414;SDS011;2730;51.512;7.504;2023-02-14T10:07:58;7.43;;;6.10;;
5414;SDS011;2730;51.512;7.504;2023-02-14T10:10:30;8.73;;;5.53;;
5414;SDS011;2730;51.512;7.504;2023-02-14T10:13:03;10.23;;;7.93;;
5414;SDS011;2730;51.512;7.504;2023-02-14T10:15:37;13.70;;;7.10;;
5414;SDS011;2730;51.512;7.504;2023-02-14T10:18:10;9.90;;;7.10;;
5414;SDS011;2730;51.512;7.504;2023-02-14T10:20:42;7.40;;;6.30;;
5414;SDS011;2730;51.512;7.504;2023-02-14T10:23:18;12.10;;;6.23;;
5414;SDS011;2730;51.512;7.504;2023-02-14T10:25:52;11.37;;;6.57;;
5414;SDS011;2730;51.512;7.504;2023-02-14T10:28:25;11.00;;;6.60;;
5414;SDS011;2730;51.512;7.504;2023-02-14T10:30:59;12.73;;;6.00;;
5414;SDS011;2730;51.512;7.504;2023-02-14T10:33:38;8.17;;;5.60;;
5414;SDS011;2730;51.512;7.504;2023-02-14T10:36:10;9.30;;;6.77;;
5414;SDS011;2730;51.512;7.504;2023-02-14T10:38:47;11.70;;;5.73;;
5414;SDS011;2730;51.512;7.504;2023-02-14T10:41:26;12.03;;;6.70;;
5414;SDS011;2730;51.512;7.504;2023-02-14T10:44:09;12.43;;;6.37;;
5414;SDS011;2730;51.512;7.504;2023-02-14T10:46:44;9.40;;;5.47;;
5414;SDS011;2730;51.512;7.504;2023-02-14T10:49:28;10.03;;;5.90;;
5414;SDS011;2730;51.512;7.504;2023-02-14T10:52:06;7.80;;;5.33;;
5414;SDS011;2730;51.512;7.504;2023-02-14T10:54:41;6.50;;;5.40;;
5414;SDS011;2730;51.512;7.504;2023-02-14T10:57:10;9.10;;;5.57;;
5414;SDS011;2730;51.512;7.504;2023-02-14T10:59:43;9.17;;;4.70;;
5414;SDS011;2730;51.512;7.504;2023-02-14T11:02:16;8.40;;;5.20;;
5414;SDS011;2730;51.512;7.504;2023-02-14T11:04:47;6.87;;;4.93;;
5414;SDS011;2730;51.512;7.504;2023-02-14T11:07:15;10.20;;;4.93;;
5414;SDS011;2730;51.512;7.504;2023-02-14T11:09:43;7.83;;;5.00;;
5414;SDS011;2730;51.512;7.504;2023-02-14T11:12:11;8.00;;;4.77;;
5414;SDS011;2730;51.512;7.504;2023-02-14T11:14:38;16.67;;;6.70;;
5414;SDS011;2730;51.512;7.504;2023-02-14T11:17:25;8.37;;;5.07;;
5414;SDS011;2730;51.512;7.504;2023-02-14T11:19:56;8.23;;;4.50;;
5414;SDS011;2730;51.512;7.504;2023-02-14T11:22:29;9.80;;;5.47;;
5414;SDS011;2730;51.512;7.504;2023-02-14T11:25:01;9.13;;;5.70;;
5414;SDS011;2730;51.512;7.504;2023-02-14T11:27:30;7.43;;;4.90;;
5414;SDS011;2730;51.512;7.504;2023-02-14T11:29:58;8.03;;;4.70;;
5414;SDS011;2730;51.512;7.504;2023-02-14T11:32:27;7.07;;;5.80;;
5414;SDS011;2730;51.512;7.504;2023-02-14T11:34:58;7.80;;;5.70;;
5414;SDS011;2730;51.512;7.504;2023-02-14T11:37:26;8.52;;;5.05;;
5414;SDS011;2730;51.512;7.504;2023-02-14T11:39:57;12.45;;;5.88;;
5414;SDS011;2730;51.512;7.504;2023-02-14T11:42:33;7.18;;;4.95;;
5414;SDS011;2730;51.512;7.504;2023-02-14T11:45:06;9.23;;;5.45;;
5414;SDS011;2730;51.512;7.504;2023-02-14T11:47:52;6.68;;;4.85;;
5414;SDS011;2730;51.512;7.504;2023-02-14T11:50:35;6.78;;;4.65;;
5414;SDS011;2730;51.512;7.504;2023-02-14T11:53:03;11.57;;;5.28;;
5414;SDS011;2730;51.512;7.504;2023-02-14T11:55:35;6.50;;;4.10;;
5414;SDS011;2730;51.512;7.504;2023-02-14T11:58:02;11.13;;;5.20;;
5414;SDS011;2730;51.512;7.504;2023-02-14T12:00:31;8.55;;;4.80;;
5414;SDS011;2730;51.512;7.504;2023-02-14T12:02:59;11.60;;;4.90;;
5414;SDS011;2730;51.512;7.504;2023-02-14T12:05:30;7.40;;;4.82;;
5414;SDS011;2730;51.512;7.504;2023-02-14T12:08:02;15.55;;;5.20;;
5414;SDS011;2730;51.512;7.504;2023-02-14T12:10:32;9.93;;;4.70;;
5414;SDS011;2730;51.512;7.504;2023-02-14T12:13:02;7.60;;;5.28;;
5414;SDS011;2730;51.512;7.504;2023-02-14T12:15:48;9.63;;;5.10;;
5414;SDS011;2730;51.512;7.504;2023-02-14T12:21:32;9.00;;;5.00;;
5414;SDS011;2730;51.512;7.504;2023-02-14T12:24:10;6.25;;;4.82;;
5414;SDS011;2730;51.512;7.504;2023-02-14T12:26:45;7.07;;;4.45;;
5414;SDS011;2730;51.512;7.504;2023-02-14T12:29:19;10.13;;;4.50;;
5414;SDS011;2730;51.512;7.504;2023-02-14T12:31:50;8.65;;;4.10;;
5414;SDS011;2730;51.512;7.504;2023-02-14T12:34:18;6.55;;;4.55;;
5414;SDS011;2730;51.512;7.504;2023-02-14T12:37:01;5.88;;;4.15;;
5414;SDS011;2730;51.512;7.504;2023-02-14T12:39:47;7.65;;;5.03;;
5414;SDS011;2730;51.512;7.504;2023-02-14T12:42:28;7.43;;;5.30;;
5414;SDS011;2730;51.512;7.504;2023-02-14T12:45:08;10.57;;;4.32;;
5414;SDS011;2730;51.512;7.504;2023-02-14T12:47:43;5.55;;;4.50;;
5414;SDS011;2730;51.512;7.504;2023-02-14T12:50:22;6.32;;;4.43;;
5414;SDS011;2730;51.512;7.504;2023-02-14T12:53:05;6.05;;;3.80;;
5414;SDS011;2730;51.512;7.504;2023-02-14T12:55:50;8.25;;;4.20;;
5414;SDS011;2730;51.512;7.504;2023-02-14T12:58:26;6.40;;;4.40;;
5414;SDS011;2730;51.512;7.504;2023-02-14T13:01:03;6.68;;;4.10;;
5414;SDS011;2730;51.512;7.504;2023-02-14T13:06:39;8.82;;;4.55;;
5414;SDS011;2730;51.512;7.504;2023-02-14T13:09:15;7.22;;;3.95;;
5414;SDS011;2730;51.512;7.504;2023-02-14T13:11:57;9.60;;;4.30;;
5414;SDS011;2730;51.512;7.504;2023-02-14T13:14:39;8.23;;;3.33;;
5414;SDS011;2730;51.512;7.504;2023-02-14T13:17:15;5.20;;;3.58;;
5414;SDS011;2730;51.512;7.504;2023-02-14T13:19:50;6.80;;;3.78;;
5414;SDS011;2730;51.512;7.504;2023-02-14T13:22:24;10.50;;;4.72;;
5414;SDS011;2730;51.512;7.504;2023-02-14T13:24:54;10.32;;;4.53;;
5414;SDS011;2730;51.512;7.504;2023-02-14T13:27:26;5.20;;;3.38;;
5414;SDS011;2730;51.512;7.504;2023-02-14T13:29:57;5.15;;;3.50;;
5414;SDS011;2730;51.512;7.504;2023-02-14T13:32:27;5.60;;;3.65;;
5414;SDS011;2730;51.512;7.504;2023-02-14T13:34:58;5.70;;;3.95;;
5414;SDS011;2730;51.512;7.504;2023-02-14T13:37:25;12.07;;;4.45;;
5414;SDS011;2730;51.512;7.504;2023-02-14T13:39:55;12.52;;;5.70;;
5414;SDS011;2730;51.512;7.504;2023-02-14T13:48:28;7.88;;;5.25;;
5414;SDS011;2730;51.512;7.504;2023-02-14T13:50:55;13.50;;;5.47;;
5414;SDS011;2730;51.512;7.504;2023-02-14T13:53:27;8.23;;;4.60;;
5414;SDS011;2730;51.512;7.504;2023-02-14T13:56:00;8.13;;;3.65;;
5414;SDS011;2730;51.512;7.504;2023-02-14T13:58:31;10.40;;;5.30;;
5414;SDS011;2730;51.512;7.504;2023-02-14T14:00:59;8.52;;;5.35;;
5414;SDS011;2730;51.512;7.504;2023-02-14T14:03:57;10.10;;;5.53;;
5414;SDS011;2730;51.512;7.504;2023-02-14T14:06:25;13.20;;;6.45;;
5414;SDS011;2730;51.512;7.504;2023-02-14T14:08:52;18.05;;;6.90;;
5414;SDS011;2730;51.512;7.504;2023-02-14T14:14:32;11.35;;;5.95;;
5414;SDS011;2730;51.512;7.504;2023-02-14T14:17:02;10.73;;;6.60;;
5414;SDS011;2730;51.512;7.504;2023-02-14T14:19:47;10.88;;;5.72;;
5414;SDS011;2730;51.512;7.504;2023-02-14T14:22:14;9.90;;;4.90;;
5414;SDS011;2730;51.512;7.504;2023-02-14T14:24:49;8.52;;;4.72;;
5414;SDS011;2730;51.512;7.504;2023-02-14T14:27:21;9.25;;;5.80;;
5414;SDS011;2730;51.512;7.504;2023-02-14T14:29:52;11.10;;;5.55;;
5414;SDS011;2730;51.512;7.504;2023-02-14T14:32:23;9.50;;;5.22;;
5414;SDS011;2730;51.512;7.504;2023-02-14T14:34:52;12.00;;;5.00;;
5414;SDS011;2730;51.512;7.504;2023-02-14T14:37:21;8.77;;;4.50;;
5414;SDS011;2730;51.512;7.504;2023-02-14T14:39:50;6.03;;;4.35;;
5414;SDS011;2730;51.512;7.504;2023-02-14T14:42:18;9.43;;;4.53;;
5414;SDS011;2730;51.512;7.504;2023-02-14T14:44:47;11.63;;;5.53;;
5414;SDS011;2730;51.512;7.504;2023-02-14T14:47:19;7.95;;;4.70;;
5414;SDS011;2730;51.512;7.504;2023-02-14T14:49:49;8.10;;;4.85;;
5414;SDS011;2730;51.512;7.504;2023-02-14T14:52:26;10.57;;;5.43;;
5414;SDS011;2730;51.512;7.504;2023-02-14T14:55:00;7.32;;;4.75;;
5414;SDS011;2730;51.512;7.504;2023-02-14T14:57:28;9.23;;;5.03;;
5414;SDS011;2730;51.512;7.504;2023-02-14T15:03:01;5.93;;;4.00;;
5414;SDS011;2730;51.512;7.504;2023-02-14T15:05:31;6.57;;;4.05;;
5414;SDS011;2730;51.512;7.504;2023-02-14T15:08:17;8.43;;;4.20;;
5414;SDS011;2730;51.512;7.504;2023-02-14T15:10:47;8.35;;;4.47;;
5414;SDS011;2730;51.512;7.504;2023-02-14T15:13:18;9.02;;;4.60;;
5414;SDS011;2730;51.512;7.504;2023-02-14T15:16:06;7.50;;;4.43;;
5414;SDS011;2730;51.512;7.504;2023-02-14T15:18:34;5.35;;;4.20;;
5414;SDS011;2730;51.512;7.504;2023-02-14T15:21:01;10.38;;;4.07;;
5414;SDS011;2730;51.512;7.504;2023-02-14T15:23:30;6.97;;;4.53;;
5414;SDS011;2730;51.512;7.504;2023-02-14T15:25:57;6.25;;;4.50;;
5414;SDS011;2730;51.512;7.504;2023-02-14T15:28:25;15.10;;;4.60;;
5414;SDS011;2730;51.512;7.504;2023-02-14T15:30:57;11.50;;;4.07;;
5414;SDS011;2730;51.512;7.504;2023-02-14T15:33:26;7.53;;;5.18;;
5414;SDS011;2730;51.512;7.504;2023-02-14T15:35:55;6.63;;;4.63;;
5414;SDS011;2730;51.512;7.504;2023-02-14T15:38:23;6.10;;;5.10;;
5414;SDS011;2730;51.512;7.504;2023-02-14T15:40:52;9.40;;;4.72;;
5414;SDS011;2730;51.512;7.504;2023-02-14T15:43:22;8.82;;;4.75;;
5414;SDS011;2730;51.512;7.504;2023-02-14T15:45:55;8.52;;;4.28;;
5414;SDS011;2730;51.512;7.504;2023-02-14T15:48:27;9.32;;;5.10;;
5414;SDS011;2730;51.512;7.504;2023-02-14T15:50:56;6.00;;;4.35;;
5414;SDS011;2730;51.512;7.504;2023-02-14T15:53:29;8.77;;;4.47;;
5414;SDS011;2730;51.512;7.504;2023-02-14T15:56:05;9.88;;;5.50;;
5414;SDS011;2730;51.512;7.504;2023-02-14T15:58:36;9.70;;;4.80;;
5414;SDS011;2730;51.512;7.504;2023-02-14T16:01:05;8.65;;;6.35;;
5414;SDS011;2730;51.512;7.504;2023-02-14T16:03:33;8.00;;;4.80;;
5414;SDS011;2730;51.512;7.504;2023-02-14T16:06:04;13.82;;;5.93;;